Higgins, Oklahoma
Current Conditions -  °F | °C
As of 4:53 PM on Wednesday 22 Oct 2014 (Local Time) from KMLC Reporting Station
Clear Clear  
Wind Chill: 77°   Ceiling: Unl
Heat Index: 78°   Visibility: 10mi
Dew Point: 55°   Wind: 5mph
Humidity: 46%   Direction: 100°E
Pressure: 30.1"   Gusts: NA
Location:  34.8806°N, 95.3086°W
Report Text: KMLC 222153Z AUTO 10004KT 10SM CLR 25/13 A3010 RMK AO2 SLP187 T02500128
Loading
Personal Weather Stations






























Interactive Weather Map
Tropical Storm Tracking
New forecast layout! Learn more

10-Day Weather Forecast

Advertisements
Track Severe Weather on mobile